HUN33MB EKCH-LSGG
Flight info
| Callsign | HUN33MB |
|---|---|
| Flight time | 2h 13m |
| Altitude | 38000 |
| Route | NEXEN T503 GIMRU DCT MICOS DCT AGATI DCT WRB/N0449F370 N850 XAROL/N0449F380 DCT BOMBI DCT GIGET DCT ABUKA DCT KRH DCT NATOR/N0449F370 DCT LUTIX DCT BENOT |
| Aircraft | A21N/M-SDE2E3FGHIJ1RWXY/LB1 |
Departure
| Time | 2026-04-24 16:44 |
|---|---|
| Airport | Copenhagen Kastrup Airport (EKCH) |
Arrival
| Time | 2026-04-24 18:57 |
|---|---|
| Airport | Geneva International Airport (LSGG) |
| Time | Latitude | Longitude | Altitude | Speed | Heading |
|---|---|---|---|---|---|
| 2026-04-24 15:29 | 55.62783 | 12.64153 | 23 ft | 0 kts | 123° |
| 2026-04-24 16:27 | 55.62789 | 12.64139 | 22 ft | 4 kts | 123° |
| 2026-04-24 16:27 | 55.62800 | 12.64108 | 25 ft | 4 kts | 118° |
| 2026-04-24 16:27 | 55.62810 | 12.64064 | 22 ft | 4 kts | 104° |
| 2026-04-24 16:28 | 55.62815 | 12.64027 | 22 ft | 4 kts | 104° |
| 2026-04-24 16:28 | 55.62821 | 12.63981 | 22 ft | 4 kts | 104° |
| 2026-04-24 16:28 | 55.62834 | 12.63888 | 24 ft | 4 kts | 104° |
| 2026-04-24 16:29 | 55.62836 | 12.63874 | 22 ft | 1 kts | 104° |
| 2026-04-24 16:31 | 55.62830 | 12.63917 | 23 ft | 7 kts | 103° |
| 2026-04-24 16:31 | 55.62784 | 12.63950 | 24 ft | 9 kts | 189° |
| 2026-04-24 16:31 | 55.62727 | 12.63906 | 24 ft | 9 kts | 214° |
| 2026-04-24 16:32 | 55.62666 | 12.63861 | 22 ft | 11 kts | 169° |
| 2026-04-24 16:32 | 55.62611 | 12.63962 | 24 ft | 13 kts | 123° |
| 2026-04-24 16:32 | 55.62559 | 12.64100 | 22 ft | 14 kts | 123° |
| 2026-04-24 16:32 | 55.62502 | 12.64254 | 22 ft | 16 kts | 123° |
| 2026-04-24 16:33 | 55.62438 | 12.64422 | 22 ft | 17 kts | 126° |
| 2026-04-24 16:33 | 55.62363 | 12.64600 | 23 ft | 19 kts | 126° |
| 2026-04-24 16:33 | 55.62290 | 12.64795 | 23 ft | 20 kts | 122° |
| 2026-04-24 16:33 | 55.62212 | 12.65004 | 25 ft | 21 kts | 123° |
| 2026-04-24 16:34 | 55.62141 | 12.65136 | 23 ft | 11 kts | 197° |
| 2026-04-24 16:34 | 55.62083 | 12.65038 | 23 ft | 12 kts | 218° |
| 2026-04-24 16:34 | 55.62006 | 12.64948 | 23 ft | 14 kts | 214° |
| 2026-04-24 16:34 | 55.61922 | 12.64848 | 23 ft | 15 kts | 214° |
| 2026-04-24 16:35 | 55.61828 | 12.64741 | 22 ft | 17 kts | 212° |
| 2026-04-24 16:35 | 55.61725 | 12.64627 | 22 ft | 18 kts | 213° |
| 2026-04-24 16:35 | 55.61615 | 12.64501 | 23 ft | 19 kts | 213° |
| 2026-04-24 16:35 | 55.61498 | 12.64366 | 23 ft | 21 kts | 213° |
| 2026-04-24 16:36 | 55.61380 | 12.64229 | 23 ft | 20 kts | 213° |
| 2026-04-24 16:36 | 55.61257 | 12.64087 | 22 ft | 21 kts | 213° |
| 2026-04-24 16:36 | 55.61135 | 12.63947 | 22 ft | 18 kts | 213° |
| 2026-04-24 16:36 | 55.61026 | 12.63822 | 22 ft | 19 kts | 213° |
| 2026-04-24 16:37 | 55.60912 | 12.63691 | 23 ft | 13 kts | 212° |
| 2026-04-24 16:37 | 55.60834 | 12.63604 | 22 ft | 14 kts | 204° |
| 2026-04-24 16:37 | 55.60747 | 12.63665 | 23 ft | 15 kts | 132° |
| 2026-04-24 16:37 | 55.60735 | 12.63690 | 23 ft | 0 kts | 129° |
| 2026-04-24 16:43 | 55.60734 | 12.63691 | 23 ft | 1 kts | 129° |
| 2026-04-24 16:43 | 55.60688 | 12.63830 | 26 ft | 17 kts | 84° |
| 2026-04-24 16:43 | 55.60778 | 12.64025 | 25 ft | 38 kts | 40° |
| 2026-04-24 16:43 | 55.61179 | 12.64650 | 24 ft | 113 kts | 41° |
| 2026-04-24 16:44 | 55.61921 | 12.65807 | 35 ft | 166 kts | 36° |
| 2026-04-24 16:44 | 55.62711 | 12.67165 | 756 ft | 153 kts | 41° |
| 2026-04-24 16:44 | 55.63479 | 12.68479 | 1296 ft | 159 kts | 29° |
| 2026-04-24 16:44 | 55.64427 | 12.69740 | 1723 ft | 178 kts | 33° |
| 2026-04-24 16:45 | 55.65398 | 12.71228 | 2220 ft | 195 kts | 34° |
| 2026-04-24 16:45 | 55.66489 | 12.72855 | 2795 ft | 211 kts | 33° |
| 2026-04-24 16:45 | 55.67662 | 12.74585 | 3186 ft | 236 kts | 34° |
| 2026-04-24 16:45 | 55.68946 | 12.76570 | 3824 ft | 250 kts | 40° |
| 2026-04-24 16:46 | 55.69940 | 12.79180 | 4634 ft | 265 kts | 63° |
| 2026-04-24 16:46 | 55.70230 | 12.82472 | 5497 ft | 280 kts | 90° |
| 2026-04-24 16:46 | 55.69624 | 12.85798 | 6339 ft | 292 kts | 121° |
| 2026-04-24 16:46 | 55.68175 | 12.88328 | 7092 ft | 298 kts | 151° |
| 2026-04-24 16:47 | 55.66258 | 12.89736 | 7862 ft | 300 kts | 163° |
| 2026-04-24 16:47 | 55.64256 | 12.90875 | 8648 ft | 305 kts | 164° |
| 2026-04-24 16:47 | 55.62619 | 12.91714 | 9273 ft | 308 kts | 172° |
| 2026-04-24 16:47 | 55.60558 | 12.91830 | 9962 ft | 306 kts | 193° |
| 2026-04-24 16:48 | 55.59193 | 12.91136 | 10298 ft | 307 kts | 211° |
| 2026-04-24 16:48 | 55.57500 | 12.88841 | 10610 ft | 314 kts | 233° |
| 2026-04-24 16:48 | 55.56014 | 12.85861 | 10893 ft | 332 kts | 234° |
| 2026-04-24 16:48 | 55.54441 | 12.82714 | 11158 ft | 351 kts | 233° |
| 2026-04-24 16:49 | 55.52762 | 12.79504 | 11749 ft | 359 kts | 232° |
| 2026-04-24 16:49 | 55.51074 | 12.76239 | 12496 ft | 360 kts | 235° |
| 2026-04-24 16:49 | 55.49454 | 12.72845 | 13271 ft | 363 kts | 235° |
| 2026-04-24 16:49 | 55.47832 | 12.69418 | 14019 ft | 365 kts | 236° |
| 2026-04-24 16:50 | 55.46752 | 12.67137 | 14463 ft | 367 kts | 235° |
| 2026-04-24 16:50 | 55.44541 | 12.62504 | 15348 ft | 371 kts | 236° |
| 2026-04-24 16:50 | 55.42875 | 12.59005 | 16002 ft | 374 kts | 236° |
| 2026-04-24 16:50 | 55.41194 | 12.55493 | 16646 ft | 377 kts | 235° |
| 2026-04-24 16:51 | 55.40066 | 12.53148 | 17064 ft | 380 kts | 235° |
| 2026-04-24 16:51 | 55.38094 | 12.49054 | 17805 ft | 383 kts | 235° |
| 2026-04-24 16:51 | 55.36367 | 12.45464 | 18423 ft | 386 kts | 235° |
| 2026-04-24 16:51 | 55.34687 | 12.41978 | 18954 ft | 389 kts | 236° |
| 2026-04-24 16:52 | 55.33280 | 12.39055 | 19375 ft | 391 kts | 236° |
| 2026-04-24 16:52 | 55.31515 | 12.35394 | 19900 ft | 394 kts | 236° |
| 2026-04-24 16:52 | 55.29736 | 12.31713 | 20418 ft | 397 kts | 236° |
| 2026-04-24 16:52 | 55.27941 | 12.28000 | 20918 ft | 400 kts | 236° |
| 2026-04-24 16:53 | 55.26436 | 12.24895 | 21343 ft | 403 kts | 236° |
| 2026-04-24 16:53 | 55.24614 | 12.21148 | 21831 ft | 406 kts | 236° |
| 2026-04-24 16:53 | 55.22773 | 12.17361 | 22307 ft | 409 kts | 236° |
| 2026-04-24 16:53 | 55.20899 | 12.13593 | 22787 ft | 414 kts | 232° |
| 2026-04-24 16:54 | 55.18723 | 12.10192 | 23138 ft | 424 kts | 224° |
| 2026-04-24 16:54 | 55.16345 | 12.07106 | 23554 ft | 429 kts | 221° |
| 2026-04-24 16:54 | 55.13914 | 12.04044 | 23942 ft | 432 kts | 221° |
| 2026-04-24 16:54 | 55.11470 | 12.00967 | 24358 ft | 434 kts | 221° |
| 2026-04-24 16:55 | 55.09023 | 11.97872 | 24785 ft | 435 kts | 221° |
| 2026-04-24 16:55 | 55.06579 | 11.94770 | 25205 ft | 437 kts | 222° |
| 2026-04-24 16:55 | 55.04115 | 11.91637 | 25625 ft | 438 kts | 222° |
| 2026-04-24 16:55 | 55.01645 | 11.88497 | 26037 ft | 440 kts | 221° |
| 2026-04-24 16:56 | 55.00006 | 11.86422 | 26310 ft | 441 kts | 221° |
| 2026-04-24 16:56 | 54.97260 | 11.82951 | 26759 ft | 443 kts | 222° |
| 2026-04-24 16:56 | 54.94746 | 11.79770 | 27133 ft | 444 kts | 221° |
| 2026-04-24 16:56 | 54.92240 | 11.76603 | 27548 ft | 445 kts | 221° |
| 2026-04-24 16:57 | 54.89732 | 11.73444 | 27957 ft | 446 kts | 221° |
| 2026-04-24 16:57 | 54.87212 | 11.70270 | 28344 ft | 448 kts | 221° |
| 2026-04-24 16:57 | 54.84684 | 11.67093 | 28702 ft | 449 kts | 221° |
| 2026-04-24 16:57 | 54.82153 | 11.63918 | 29213 ft | 448 kts | 221° |
| 2026-04-24 16:58 | 54.79637 | 11.60766 | 29695 ft | 446 kts | 221° |
| 2026-04-24 16:58 | 54.77124 | 11.57623 | 30176 ft | 444 kts | 221° |
| 2026-04-24 16:58 | 54.74627 | 11.54508 | 30587 ft | 442 kts | 221° |
| 2026-04-24 16:58 | 54.72132 | 11.51407 | 30947 ft | 441 kts | 221° |
| 2026-04-24 16:59 | 54.69645 | 11.48319 | 31287 ft | 439 kts | 221° |
| 2026-04-24 16:59 | 54.67165 | 11.45240 | 31608 ft | 438 kts | 221° |
| 2026-04-24 16:59 | 54.62227 | 11.39113 | 32205 ft | 436 kts | 221° |
| 2026-04-24 17:00 | 54.59759 | 11.36054 | 32476 ft | 436 kts | 221° |
| 2026-04-24 17:00 | 54.54842 | 11.29990 | 33009 ft | 434 kts | 221° |
| 2026-04-24 17:00 | 54.52383 | 11.26986 | 33241 ft | 433 kts | 221° |
| 2026-04-24 17:01 | 54.47463 | 11.21016 | 33643 ft | 433 kts | 220° |
| 2026-04-24 17:01 | 54.45008 | 11.18033 | 33912 ft | 432 kts | 220° |
| 2026-04-24 17:02 | 54.40929 | 11.13093 | 34292 ft | 431 kts | 220° |
| 2026-04-24 17:02 | 54.37657 | 11.09142 | 34556 ft | 430 kts | 220° |
| 2026-04-24 17:02 | 54.35209 | 11.06187 | 34757 ft | 430 kts | 220° |
| 2026-04-24 17:02 | 54.32771 | 11.03251 | 34944 ft | 429 kts | 220° |
| 2026-04-24 17:03 | 54.27517 | 10.98280 | 35291 ft | 436 kts | 208° |
| 2026-04-24 17:03 | 54.24716 | 10.96268 | 35442 ft | 436 kts | 208° |
| 2026-04-24 17:03 | 54.22616 | 10.94781 | 35593 ft | 435 kts | 208° |
| 2026-04-24 17:04 | 54.19861 | 10.92817 | 35790 ft | 434 kts | 208° |
| 2026-04-24 17:04 | 54.14270 | 10.88780 | 36154 ft | 433 kts | 208° |
| 2026-04-24 17:04 | 54.11534 | 10.86807 | 36320 ft | 432 kts | 208° |
| 2026-04-24 17:05 | 54.08766 | 10.84818 | 36487 ft | 432 kts | 208° |
| 2026-04-24 17:05 | 54.05994 | 10.82835 | 36644 ft | 432 kts | 208° |
| 2026-04-24 17:05 | 54.00466 | 10.78876 | 36925 ft | 431 kts | 208° |
| 2026-04-24 17:06 | 53.97710 | 10.76905 | 37073 ft | 430 kts | 208° |
| 2026-04-24 17:06 | 53.92191 | 10.72976 | 37341 ft | 430 kts | 208° |
| 2026-04-24 17:06 | 53.89433 | 10.71019 | 37466 ft | 430 kts | 208° |
| 2026-04-24 17:07 | 53.83916 | 10.67103 | 37706 ft | 429 kts | 208° |
| 2026-04-24 17:07 | 53.78408 | 10.63201 | 37938 ft | 429 kts | 208° |
| 2026-04-24 17:08 | 53.72890 | 10.59333 | 38128 ft | 429 kts | 208° |
| 2026-04-24 17:08 | 53.67374 | 10.55464 | 38133 ft | 429 kts | 208° |
| 2026-04-24 17:09 | 53.56364 | 10.47715 | 38136 ft | 429 kts | 208° |
| 2026-04-24 17:10 | 53.45360 | 10.40045 | 38161 ft | 428 kts | 208° |
| 2026-04-24 17:12 | 53.24263 | 10.25462 | 38184 ft | 431 kts | 208° |
| 2026-04-24 18:54 | 46.31574 | 6.22327 | 3205 ft | 174 kts | 226° |
| 2026-04-24 18:55 | 46.29897 | 6.19852 | 2757 ft | 172 kts | 226° |
| 2026-04-24 18:55 | 46.29074 | 6.18641 | 2501 ft | 164 kts | 226° |
| 2026-04-24 18:55 | 46.28305 | 6.17502 | 2265 ft | 155 kts | 226° |
| 2026-04-24 18:56 | 46.27561 | 6.16424 | 2088 ft | 153 kts | 226° |
| 2026-04-24 18:56 | 46.26822 | 6.15327 | 1896 ft | 151 kts | 226° |
| 2026-04-24 18:56 | 46.26085 | 6.14240 | 1718 ft | 151 kts | 226° |
| 2026-04-24 18:56 | 46.25355 | 6.13156 | 1516 ft | 151 kts | 226° |
| 2026-04-24 18:57 | 46.24624 | 6.12097 | 1381 ft | 141 kts | 225° |
| 2026-04-24 18:57 | 46.24061 | 6.11267 | 1379 ft | 76 kts | 225° |
| 2026-04-24 18:57 | 46.23893 | 6.11070 | 1385 ft | 20 kts | 191° |
| 2026-04-24 18:57 | 46.23814 | 6.11072 | 1384 ft | 7 kts | 171° |
| 2026-04-24 18:58 | 46.23781 | 6.11080 | 1387 ft | 1 kts | 169° |
| 2026-04-24 18:58 | 46.23771 | 6.11083 | 1387 ft | 0 kts | 169° |
| 2026-04-24 18:58 | 46.23764 | 6.11085 | 1388 ft | 4 kts | 169° |
| 2026-04-24 18:59 | 46.23719 | 6.11085 | 1400 ft | 9 kts | 198° |
| 2026-04-24 18:59 | 46.23661 | 6.11021 | 1405 ft | 13 kts | 226° |
| 2026-04-24 18:59 | 46.23595 | 6.10917 | 1398 ft | 14 kts | 226° |
| 2026-04-24 18:59 | 46.23535 | 6.10829 | 1401 ft | 13 kts | 225° |
| 2026-04-24 19:00 | 46.23481 | 6.10757 | 1403 ft | 6 kts | 190° |
| 2026-04-24 19:00 | 46.23435 | 6.10797 | 1401 ft | 6 kts | 135° |
| 2026-04-24 19:00 | 46.23424 | 6.10813 | 1398 ft | 0 kts | 136° |